Time;durP1;ratioP1;P1;durP2;ratioP2;P2;SDS_P1;SDS_P2;PMS_P1;PMS_P2;Temp;Humidity;BMP_temperature;BMP_pressure;BME280_temperature;BME280_humidity;BME280_pressure;Samples;Min_cycle;Max_cycle;Signal;HPM_P1;HPM_P2
2022/06/16 00:09:01;;;;;;;3.35;1.33;;;;;;;16.79;54.98;100427.00;31435670;28;20053;-74
2022/06/16 00:24:03;;;;;;;4.43;1.70;;;;;;;16.68;55.22;100419.22;31433700;28;20063;-72
2022/06/16 00:39:05;;;;;;;2.38;1.45;;;;;;;16.55;55.33;100422.03;31425279;28;20053;-73
2022/06/16 00:54:32;;;;;;;1.90;1.27;;;;;;;16.51;55.99;100424.16;31432596;28;20048;-72
2022/06/16 01:09:35;;;;;;;3.33;1.48;;;;;;;16.38;55.91;100443.41;31447743;28;20484;-74
2022/06/16 01:24:51;;;;;;;4.85;1.30;;;;;;;16.17;57.77;100448.94;31435226;28;20056;-73
2022/06/16 01:40:07;;;;;;;4.53;2.27;;;;;;;16.10;57.58;100457.41;31442444;28;20053;-71
2022/06/16 01:55:16;;;;;;;2.60;1.40;;;;;;;16.00;58.33;100460.09;31450364;28;20496;-72
2022/06/16 02:10:29;;;;;;;5.05;1.70;;;;;;;15.96;58.68;100467.69;31431080;28;20056;-72
2022/06/16 02:25:31;;;;;;;4.40;2.40;;;;;;;16.07;58.23;100486.44;31455566;28;20370;-73
2022/06/16 02:40:54;;;;;;;4.07;1.40;;;;;;;16.23;59.17;100489.00;31456638;28;20056;-72
2022/06/16 02:56:09;;;;;;;4.45;1.92;;;;;;;16.55;59.13;100490.53;31405460;28;20064;-72
2022/06/16 03:11:12;;;;;;;2.30;1.42;;;;;;;16.73;58.88;100506.34;31429318;28;20045;-73
2022/06/16 03:26:14;;;;;;;4.47;1.60;;;;;;;17.06;58.44;100506.59;31443301;28;20048;-74
2022/06/16 03:41:16;;;;;;;12.68;2.38;;;;;;;17.39;59.22;100502.13;31449486;28;20048;-72
2022/06/16 03:56:18;;;;;;;6.75;3.28;;;;;;;17.90;58.38;100504.31;31440107;28;20037;-73
2022/06/16 04:11:32;;;;;;;5.15;2.85;;;;;;;18.58;57.22;100504.03;31473641;28;20056;-72
2022/06/16 04:26:37;;;;;;;9.00;3.80;;;;;;;19.28;55.76;100516.41;31421873;28;20496;-70
2022/06/16 04:41:39;;;;;;;5.05;2.72;;;;;;;20.13;54.06;100516.06;31456120;28;20049;-72
2022/06/16 04:56:41;;;;;;;13.50;5.05;;;;;;;20.79;51.99;100519.19;31496753;28;20056;-71
2022/06/16 05:11:43;;;;;;;8.18;2.60;;;;;;;21.40;50.38;100520.09;31471495;28;20139;-73
2022/06/16 05:26:44;;;;;;;8.73;3.13;;;;;;;22.19;48.43;100537.59;31476176;28;20059;-73
2022/06/16 05:41:47;;;;;;;6.57;2.47;;;;;;;22.74;45.63;100549.13;31471518;28;20481;-75
2022/06/16 05:56:49;;;;;;;7.73;2.83;;;;;;;23.09;44.62;100548.16;31447988;28;20041;-71
2022/06/16 06:27:20;;;;;;;6.45;3.70;;;;;;;24.30;38.79;100537.31;31442792;28;20500;-73
2022/06/16 06:42:22;;;;;;;3.28;1.48;;;;;;;24.54;38.12;100551.47;31411938;28;20049;-72
2022/06/16 06:57:25;;;;;;;;;;;;;;;25.04;33.75;100537.53;31425925;28;20044;-69
2022/06/16 07:12:28;;;;;;;2.73;1.50;;;;;;;25.33;33.83;100547.31;31441679;28;19920;-70
2022/06/16 07:27:30;;;;;;;1.85;1.38;;;;;;;26.32;32.70;100547.38;31425509;28;20300;-69
2022/06/16 07:42:33;;;;;;;1.95;1.48;;;;;;;26.53;32.11;100539.38;31446686;28;20102;-69
2022/06/16 07:57:48;;;;;;;4.63;2.00;;;;;;;27.08;32.47;100543.69;31441629;28;20427;-70
2022/06/16 08:12:50;;;;;;;2.13;1.42;;;;;;;26.67;32.97;100554.94;31455841;28;20060;-77
2022/06/16 08:27:52;;;;;;;1.95;1.25;;;;;;;25.33;34.44;100552.88;31440476;28;20052;-75
2022/06/16 08:43:01;;;;;;;2.80;0.85;;;;;;;27.74;32.08;100544.22;31453100;28;20401;-75
2022/06/16 08:58:12;;;;;;;1.50;0.90;;;;;;;28.25;30.36;100547.06;31458791;28;20076;-71
2022/06/16 09:13:44;;;;;;;3.17;1.20;;;;;;;26.78;31.96;100542.94;31444817;28;20049;-76
2022/06/16 09:28:52;;;;;;;3.20;1.30;;;;;;;26.84;31.65;100524.91;31468461;28;20044;-75
2022/06/16 09:43:56;;;;;;;1.98;0.93;;;;;;;29.19;28.68;100535.56;31460644;28;20052;-70
2022/06/16 09:59:11;;;;;;;2.03;0.98;;;;;;;30.15;27.60;100510.63;31439510;28;20056;-81
2022/06/16 10:14:25;;;;;;;1.98;1.10;;;;;;;27.54;30.26;100518.84;31432128;28;20064;-69
2022/06/16 10:29:31;;;;;;;2.33;1.00;;;;;;;27.59;31.78;100521.59;31456974;28;20068;-71
2022/06/16 10:44:33;;;;;;;1.42;0.85;;;;;;;27.04;31.27;100522.97;31454052;28;20049;-69
2022/06/16 10:59:39;;;;;;;1.45;0.77;;;;;;;28.41;30.38;100504.16;31429519;28;20100;-70
2022/06/16 11:14:55;;;;;;;3.95;1.10;;;;;;;27.55;30.62;100514.78;31451533;28;20044;-70
2022/06/16 11:29:57;;;;;;;2.78;0.70;;;;;;;27.22;28.15;100505.53;31442786;28;20049;-71
2022/06/16 11:45:29;;;;;;;1.80;1.00;;;;;;;25.97;32.28;100509.16;31429800;28;20180;-75
2022/06/16 12:01:06;;;;;;;3.10;1.27;;;;;;;25.96;32.63;100496.50;31425991;28;20048;-74
2022/06/16 12:16:15;;;;;;;4.40;1.08;;;;;;;26.13;32.54;100488.03;31380525;28;20049;-75
2022/06/16 12:31:26;;;;;;;2.00;0.80;;;;;;;25.63;33.64;100485.56;31441908;28;20435;-76
2022/06/16 12:46:38;;;;;;;1.70;0.82;;;;;;;25.63;33.78;100475.22;31428444;28;20052;-74
2022/06/16 13:01:41;;;;;;;10.35;4.75;;;;;;;25.48;34.03;100472.00;31456614;28;20059;-70
2022/06/16 13:16:45;;;;;;;3.78;1.30;;;;;;;25.52;34.36;100463.34;31438139;28;20054;-70
2022/06/16 13:31:54;;;;;;;5.40;1.67;;;;;;;25.58;34.03;100462.06;31463712;28;20060;-70
2022/06/16 13:46:56;;;;;;;3.70;0.82;;;;;;;25.80;33.15;100455.66;31435101;28;20045;-69
2022/06/16 14:02:00;;;;;;;1.30;0.85;;;;;;;25.73;33.21;100459.00;31436884;28;20056;-73
2022/06/16 14:17:24;;;;;;;1.23;0.93;;;;;;;25.52;33.66;100463.34;31432749;28;20534;-69
2022/06/16 14:32:35;;;;;;;2.83;1.88;;;;;;;25.34;33.86;100454.34;31447776;28;20052;-77
2022/06/16 14:47:53;;;;;;;4.70;2.70;;;;;;;25.16;34.43;100449.38;31407091;28;20071;-76
2022/06/16 15:03:06;;;;;;;5.85;1.27;;;;;;;24.82;35.29;100440.38;31425578;28;20055;-76
2022/06/16 15:18:13;;;;;;;2.53;1.60;;;;;;;24.69;35.23;100429.81;31419021;28;20477;-74
2022/06/16 15:48:42;;;;;;;3.47;1.75;;;;;;;24.72;34.99;100434.34;31429130;28;20410;-71
2022/06/16 16:03:46;;;;;;;1.77;1.05;;;;;;;24.11;36.58;100432.34;31445966;28;20063;-71
2022/06/16 16:19:06;;;;;;;2.55;1.40;;;;;;;23.79;37.95;100445.72;31438089;28;20044;-70
2022/06/16 16:34:10;;;;;;;12.98;7.82;;;;;;;23.73;37.30;100449.72;31444201;28;20065;-76
2022/06/16 16:49:12;;;;;;;4.25;1.52;;;;;;;23.67;37.55;100443.41;31455205;28;20094;-69
2022/06/16 17:04:18;;;;;;;1.80;1.20;;;;;;;23.30;38.47;100447.06;31469040;28;20045;-69
2022/06/16 17:19:22;;;;;;;5.95;1.30;;;;;;;22.92;38.98;100437.31;31452346;28;20427;-70
2022/06/16 17:34:31;;;;;;;6.75;3.00;;;;;;;22.70;39.56;100434.38;31441708;28;20059;-71
2022/06/16 17:49:33;;;;;;;8.23;2.58;;;;;;;22.55;39.74;100453.91;31473521;28;20053;-69
2022/06/16 18:04:37;;;;;;;5.03;2.33;;;;;;;22.38;39.93;100458.56;31429731;28;20051;-68
2022/06/16 18:19:39;;;;;;;7.97;2.30;;;;;;;22.26;40.12;100481.84;31442223;28;20052;-69
2022/06/16 18:34:41;;;;;;;15.50;6.43;;;;;;;22.15;40.04;100481.75;31445350;28;20493;-72
2022/06/16 18:49:46;;;;;;;8.75;3.83;;;;;;;21.75;41.43;100484.09;31420442;28;20718;-74
2022/06/16 19:04:50;;;;;;;8.05;3.67;;;;;;;21.57;41.29;100472.59;31419644;28;20076;-73
2022/06/16 19:19:59;;;;;;;5.05;2.72;;;;;;;21.46;42.54;100483.50;31427012;28;20049;-72
2022/06/16 19:35:01;;;;;;;5.88;2.30;;;;;;;20.90;43.60;100477.22;31430362;28;20052;-73
2022/06/16 20:05:40;;;;;;;5.38;2.00;;;;;;;20.70;44.97;100464.91;31394833;28;20493;-73
2022/06/16 20:20:46;;;;;;;5.43;2.80;;;;;;;20.70;45.45;100469.69;31393939;28;20121;-75
2022/06/16 20:35:48;;;;;;;5.32;1.90;;;;;;;20.62;45.37;100465.78;31424287;28;20583;-72
2022/06/16 20:50:51;;;;;;;5.10;1.85;;;;;;;20.67;45.43;100465.88;31435720;28;20442;-71
2022/06/16 21:05:53;;;;;;;4.18;1.55;;;;;;;20.28;46.16;100479.03;31426200;28;20051;-72
2022/06/16 21:20:56;;;;;;;3.58;1.60;;;;;;;19.97;46.85;100487.75;31465916;28;20053;-72
2022/06/16 21:35:58;;;;;;;3.28;1.55;;;;;;;19.92;47.17;100488.41;31457840;28;20060;-72
2022/06/16 21:51:04;;;;;;;4.15;1.35;;;;;;;19.76;47.58;100499.88;31457077;28;20055;-72
2022/06/16 22:06:12;;;;;;;5.65;2.92;;;;;;;19.68;47.72;100498.72;31455984;28;20477;-73
2022/06/16 22:21:19;;;;;;;4.50;2.30;;;;;;;19.50;47.82;100505.13;31445603;28;20044;-71
2022/06/16 22:36:22;;;;;;;3.28;1.73;;;;;;;19.51;47.76;100503.13;31454193;28;20057;-72
2022/06/16 22:51:24;;;;;;;2.93;1.57;;;;;;;19.40;47.83;100490.63;31438125;28;20044;-72
2022/06/16 23:06:32;;;;;;;1.95;1.00;;;;;;;19.41;48.31;100494.88;31461095;28;20049;-72
2022/06/16 23:21:37;;;;;;;3.28;1.27;;;;;;;19.32;48.28;100496.97;31432111;28;20052;-72
2022/06/16 23:36:40;;;;;;;2.22;1.33;;;;;;;19.14;48.59;100488.78;31444484;28;20130;-71
2022/06/16 23:51:42;;;;;;;1.23;0.80;;;;;;;18.93;49.17;100487.84;31434768;28;20544;-72
